createdAt,value
2017-10-30T00:00:09.283Z,68.40
2017-10-30T00:02:39.774Z,68.70
2017-10-30T00:05:10.979Z,68.60
2017-10-30T00:07:41.489Z,68.30
2017-10-30T00:10:11.809Z,68.50
2017-10-30T00:12:44.589Z,68.00
2017-10-30T00:15:14.508Z,68.00
2017-10-30T00:17:44.826Z,68.30
2017-10-30T00:20:14.947Z,68.30
2017-10-30T00:22:46.306Z,68.30
2017-10-30T00:25:16.802Z,68.30
2017-10-30T00:27:47.343Z,68.40
2017-10-30T00:30:18.696Z,68.20
2017-10-30T00:32:48.818Z,68.20
2017-10-30T00:35:19.148Z,68.20
2017-10-30T00:37:49.875Z,67.90
2017-10-30T00:40:21.770Z,68.20
2017-10-30T00:42:52.213Z,68.20
2017-10-30T00:45:23.104Z,67.90
2017-10-30T00:47:54.359Z,68.20
2017-10-30T00:50:25.999Z,67.80
2017-10-30T00:52:56.528Z,67.80
2017-10-30T00:55:27.057Z,67.80
2017-10-30T00:57:57.110Z,67.60
2017-10-30T01:00:26.884Z,67.90
2017-10-30T01:02:57.210Z,67.80
2017-10-30T01:05:28.557Z,67.60
2017-10-30T01:07:59.291Z,67.70
2017-10-30T01:10:30.019Z,67.80
2017-10-30T01:12:59.934Z,67.40
2017-10-30T01:15:30.532Z,67.40
2017-10-30T01:18:00.790Z,67.40
2017-10-30T01:20:31.502Z,67.30
2017-10-30T01:23:01.639Z,67.30
2017-10-30T01:25:31.968Z,67.30
2017-10-30T01:28:04.948Z,67.20
2017-10-30T01:30:35.504Z,67.30
2017-10-30T01:33:05.888Z,67.30
2017-10-30T01:35:36.550Z,67.30
2017-10-30T01:38:07.194Z,67.60
2017-10-30T01:40:37.595Z,67.20
2017-10-30T01:43:07.305Z,67.20
2017-10-30T01:45:38.369Z,67.20
2017-10-30T01:48:08.972Z,67.20
2017-10-30T01:50:41.141Z,67.40
2017-10-30T01:53:11.060Z,67.30
2017-10-30T01:55:41.173Z,67.30
2017-10-30T01:58:11.489Z,67.20
2017-10-30T02:00:41.823Z,66.90
2017-10-30T02:03:13.175Z,67.00
2017-10-30T02:05:43.903Z,66.90
2017-10-30T02:08:13.816Z,66.60
2017-10-30T02:10:45.932Z,66.90
2017-10-30T02:13:15.902Z,66.90
2017-10-30T02:15:46.423Z,66.90
2017-10-30T02:18:18.388Z,66.90
2017-10-30T02:20:49.385Z,66.70
2017-10-30T02:23:20.467Z,67.10
2017-10-30T02:25:51.406Z,66.90
2017-10-30T02:28:23.163Z,67.40
2017-10-30T02:30:54.176Z,66.90
2017-10-30T02:33:26.269Z,66.90
2017-10-30T02:35:56.402Z,66.70
2017-10-30T02:38:26.918Z,66.70
2017-10-30T02:40:57.232Z,66.80
2017-10-30T02:43:28.569Z,66.80
2017-10-30T02:45:58.872Z,66.70
2017-10-30T02:48:29.644Z,66.50
2017-10-30T02:51:00.172Z,66.50
2017-10-30T02:53:30.291Z,66.60
2017-10-30T02:56:00.204Z,66.30
2017-10-30T02:58:32.781Z,66.40
2017-10-30T03:01:03.383Z,66.40
2017-10-30T03:03:33.841Z,66.40
2017-10-30T03:06:04.368Z,66.50
2017-10-30T03:08:34.897Z,66.50
2017-10-30T03:11:05.979Z,66.50
2017-10-30T03:13:37.978Z,66.60
2017-10-30T03:16:08.530Z,66.60
2017-10-30T03:18:39.662Z,66.30
2017-10-30T03:21:11.023Z,66.30
2017-10-30T03:23:42.362Z,66.30
2017-10-30T03:26:12.693Z,66.40
2017-10-30T03:28:43.222Z,66.20
2017-10-30T03:31:13.759Z,66.30
2017-10-30T03:33:44.257Z,66.20
2017-10-30T03:36:15.553Z,66.40
2017-10-30T03:38:46.147Z,66.30
2017-10-30T03:41:18.114Z,66.60
2017-10-30T03:43:47.824Z,66.50
2017-10-30T03:46:19.378Z,66.70
2017-10-30T03:48:49.294Z,66.60
2017-10-30T03:51:23.506Z,66.30
2017-10-30T03:53:54.020Z,66.10
2017-10-30T03:56:26.081Z,66.40
2017-10-30T03:58:56.859Z,66.40
2017-10-30T04:01:27.240Z,66.40
2017-10-30T04:03:57.379Z,66.70
2017-10-30T04:06:28.316Z,66.60
2017-10-30T04:08:58.653Z,66.60
2017-10-30T04:11:28.510Z,66.90
2017-10-30T04:13:59.638Z,66.40
2017-10-30T04:16:30.845Z,66.50
2017-10-30T04:19:01.981Z,66.20
2017-10-30T04:21:32.514Z,66.30
2017-10-30T04:24:03.243Z,66.50
2017-10-30T04:26:33.504Z,66.60
2017-10-30T04:29:03.905Z,66.50
2017-10-30T04:31:33.811Z,66.50
2017-10-30T04:34:05.086Z,66.50
2017-10-30T04:36:35.066Z,66.70
2017-10-30T04:39:09.688Z,66.50
2017-10-30T04:41:40.424Z,66.30
2017-10-30T04:44:12.593Z,66.40
2017-10-30T04:46:43.324Z,66.50
2017-10-30T04:49:13.808Z,66.40
2017-10-30T04:51:44.520Z,66.50
2017-10-30T04:54:15.319Z,66.40
2017-10-30T04:56:46.231Z,66.30
2017-10-30T04:59:15.966Z,66.50
2017-10-30T05:01:46.298Z,66.40
2017-10-30T05:04:17.597Z,66.40
2017-10-30T05:06:48.577Z,66.40
2017-10-30T05:09:19.383Z,66.30
2017-10-30T05:11:50.833Z,66.60
2017-10-30T05:14:21.747Z,66.60
2017-10-30T05:16:51.510Z,66.60
2017-10-30T05:19:22.038Z,66.20
2017-10-30T05:21:53.592Z,66.20
2017-10-30T05:24:24.529Z,66.40
2017-10-30T05:26:56.281Z,66.50
2017-10-30T05:29:26.405Z,66.50
2017-10-30T05:31:58.775Z,66.30
2017-10-30T05:34:28.485Z,66.20
2017-10-30T05:36:58.764Z,66.40
2017-10-30T05:39:29.546Z,66.50
2017-10-30T05:42:02.302Z,66.30
2017-10-30T05:44:34.267Z,66.40
2017-10-30T05:47:05.226Z,66.00
2017-10-30T05:49:35.140Z,66.30
2017-10-30T05:52:05.052Z,66.50
2017-10-30T05:54:36.896Z,66.30
2017-10-30T05:57:07.283Z,66.30
2017-10-30T05:59:37.642Z,66.30
2017-10-30T06:02:08.081Z,66.10
2017-10-30T06:04:38.195Z,66.00
2017-10-30T06:07:08.328Z,64.70
2017-10-30T06:09:40.185Z,66.10
2017-10-30T06:12:10.511Z,66.10
2017-10-30T06:14:41.375Z,65.80
2017-10-30T06:17:11.774Z,65.70
2017-10-30T06:19:41.688Z,65.80
2017-10-30T06:22:12.626Z,65.80
2017-10-30T06:24:43.971Z,65.90
2017-10-30T06:27:15.070Z,65.90
2017-10-30T06:29:46.720Z,65.80
2017-10-30T06:32:17.360Z,65.80
2017-10-30T06:34:48.324Z,66.00
2017-10-30T06:37:19.688Z,66.10
2017-10-30T06:39:50.214Z,66.00
2017-10-30T06:42:20.704Z,66.00
2017-10-30T06:44:50.451Z,65.90
2017-10-30T06:47:21.389Z,65.80
2017-10-30T06:49:52.736Z,65.90
2017-10-30T06:52:23.676Z,65.90
2017-10-30T06:54:55.404Z,66.10
2017-10-30T06:57:25.774Z,66.10
2017-10-30T06:59:55.673Z,66.00
2017-10-30T07:02:33.547Z,65.90
2017-10-30T07:05:05.060Z,65.80
2017-10-30T07:07:35.062Z,66.10
2017-10-30T07:10:06.375Z,65.90
2017-10-30T07:12:36.505Z,65.90
2017-10-30T07:15:06.421Z,66.00
2017-10-30T07:17:37.971Z,65.90
2017-10-30T07:20:08.090Z,66.00
2017-10-30T07:22:40.206Z,66.00
2017-10-30T07:25:10.580Z,66.00
2017-10-30T07:27:40.882Z,66.30
2017-10-30T07:30:11.030Z,66.30
2017-10-30T07:32:41.283Z,66.40
2017-10-30T07:35:13.666Z,66.40
2017-10-30T07:37:43.590Z,66.60
2017-10-30T07:40:15.720Z,66.90
2017-10-30T07:42:45.918Z,67.10
2017-10-30T07:45:16.032Z,66.10
2017-10-30T07:47:47.456Z,65.40
2017-10-30T07:50:18.988Z,65.10
2017-10-30T07:52:49.866Z,65.00
2017-10-30T07:55:21.224Z,65.90
2017-10-30T07:57:51.711Z,65.10
2017-10-30T08:00:23.656Z,65.10
2017-10-30T08:02:54.652Z,65.20
2017-10-30T08:05:24.983Z,65.20
2017-10-30T08:07:57.142Z,65.20
2017-10-30T08:10:27.200Z,65.30
2017-10-30T08:13:00.264Z,65.60
2017-10-30T08:15:30.992Z,65.50
2017-10-30T08:18:01.509Z,65.60
2017-10-30T08:20:31.824Z,65.50
2017-10-30T08:23:02.181Z,65.70
2017-10-30T08:25:32.449Z,65.70
2017-10-30T08:28:02.550Z,65.80
2017-10-30T08:30:33.332Z,65.90
2017-10-30T08:33:04.076Z,65.90
2017-10-30T08:35:34.389Z,66.00
2017-10-30T08:38:05.280Z,65.90
2017-10-30T08:40:36.477Z,65.80
2017-10-30T08:43:07.989Z,65.80
2017-10-30T08:45:39.710Z,65.80
2017-10-30T08:48:11.938Z,65.80
2017-10-30T08:50:42.224Z,65.70
2017-10-30T08:53:12.799Z,65.70
2017-10-30T08:55:44.145Z,65.70
2017-10-30T08:58:15.508Z,65.70
2017-10-30T09:00:49.102Z,65.60
2017-10-30T09:03:20.644Z,66.00
2017-10-30T09:05:50.591Z,66.00
2017-10-30T09:08:22.530Z,65.90
2017-10-30T09:10:52.600Z,66.00
2017-10-30T09:13:23.180Z,66.10
2017-10-30T09:15:53.504Z,66.20
2017-10-30T09:18:23.413Z,66.30
2017-10-30T09:20:53.520Z,66.50
2017-10-30T09:23:24.118Z,66.40
2017-10-30T09:25:55.913Z,66.10
2017-10-30T09:28:27.171Z,66.30
2017-10-30T09:30:57.653Z,66.30
2017-10-30T09:33:27.822Z,66.30
2017-10-30T09:35:59.779Z,66.30
2017-10-30T09:38:30.244Z,66.30
2017-10-30T09:41:01.855Z,66.30
2017-10-30T09:43:31.933Z,66.50
2017-10-30T09:46:01.889Z,66.50
2017-10-30T09:48:32.284Z,66.50
2017-10-30T09:51:03.047Z,66.40
2017-10-30T09:53:34.706Z,66.30
2017-10-30T09:56:04.626Z,66.40
2017-10-30T09:58:34.957Z,65.90
2017-10-30T10:01:05.265Z,66.30
2017-10-30T10:03:35.592Z,66.10
2017-10-30T10:06:06.325Z,66.20
2017-10-30T10:08:37.055Z,66.20
2017-10-30T10:11:07.716Z,66.40
2017-10-30T10:13:39.120Z,66.40
2017-10-30T10:16:09.788Z,66.60
2017-10-30T10:18:40.809Z,66.30
2017-10-30T10:21:11.338Z,66.10
2017-10-30T10:23:42.721Z,66.30
2017-10-30T10:26:13.975Z,66.30
2017-10-30T10:28:44.161Z,66.50
2017-10-30T10:31:14.069Z,66.50
2017-10-30T10:33:46.013Z,66.30
2017-10-30T10:36:16.363Z,66.30
2017-10-30T10:38:47.955Z,66.40
2017-10-30T10:41:20.482Z,66.60
2017-10-30T10:43:51.220Z,66.60
2017-10-30T10:46:22.139Z,66.50
2017-10-30T10:48:52.485Z,66.10
2017-10-30T10:51:22.520Z,66.10
2017-10-30T10:53:52.884Z,66.10
2017-10-30T10:56:22.999Z,65.90
2017-10-30T10:58:53.979Z,66.00
2017-10-30T11:01:24.263Z,65.90
2017-10-30T11:03:54.424Z,66.00
2017-10-30T11:06:24.543Z,65.80
2017-10-30T11:08:55.483Z,65.60
2017-10-30T11:11:27.646Z,65.60
2017-10-30T11:13:58.380Z,65.90
2017-10-30T11:16:29.544Z,65.50
2017-10-30T11:19:00.666Z,65.80
2017-10-30T11:21:32.013Z,65.60
2017-10-30T11:24:03.568Z,65.10
2017-10-30T11:26:34.187Z,65.10
2017-10-30T11:29:11.177Z,65.20
2017-10-30T11:31:41.884Z,65.30
2017-10-30T11:34:13.053Z,65.30
2017-10-30T11:36:43.567Z,65.20
2017-10-30T11:39:15.339Z,65.50
2017-10-30T11:41:48.214Z,65.50
2017-10-30T11:44:18.212Z,64.20
2017-10-30T11:46:48.155Z,65.00
2017-10-30T11:49:19.307Z,65.20
2017-10-30T11:51:50.199Z,65.00
2017-10-30T11:54:20.360Z,63.80
2017-10-30T11:56:50.475Z,63.90
2017-10-30T11:59:21.207Z,63.50
2017-10-30T12:01:52.562Z,63.50
2017-10-30T12:04:23.099Z,63.50
2017-10-30T12:06:53.615Z,63.50
2017-10-30T12:09:24.635Z,63.90
2017-10-30T12:11:56.517Z,63.50
2017-10-30T12:14:27.045Z,63.90
2017-10-30T12:16:56.760Z,63.70
2017-10-30T12:19:28.514Z,63.20
2017-10-30T12:22:00.604Z,63.60
2017-10-30T12:24:31.025Z,63.90
2017-10-30T12:27:00.918Z,63.70
2017-10-30T12:29:30.983Z,63.60
2017-10-30T12:32:02.555Z,63.30
2017-10-30T12:34:33.526Z,63.50
2017-10-30T12:37:04.673Z,64.00
2017-10-30T12:39:34.584Z,64.00
2017-10-30T12:42:05.725Z,64.20
2017-10-30T12:44:36.051Z,63.70
2017-10-30T12:47:06.375Z,63.70
2017-10-30T12:49:36.613Z,63.80
2017-10-30T12:52:08.049Z,63.60
2017-10-30T12:54:39.189Z,63.50
2017-10-30T12:57:09.706Z,63.50
2017-10-30T12:59:40.414Z,63.80
2017-10-30T13:02:11.596Z,64.30
2017-10-30T13:04:42.949Z,64.50
2017-10-30T13:07:13.067Z,64.50
2017-10-30T13:09:43.955Z,64.20
2017-10-30T13:12:14.207Z,65.20
2017-10-30T13:14:44.599Z,65.00
2017-10-30T13:17:15.707Z,64.90
2017-10-30T13:19:45.897Z,64.90
2017-10-30T13:22:16.132Z,63.80
2017-10-30T13:24:46.401Z,63.80
2017-10-30T13:27:16.371Z,64.50
2017-10-30T13:29:46.489Z,63.10
2017-10-30T13:32:17.536Z,64.40
2017-10-30T13:34:47.549Z,65.10
2017-10-30T13:37:17.621Z,63.60
2017-10-30T13:39:47.691Z,63.60
2017-10-30T13:42:18.934Z,63.90
2017-10-30T13:44:49.881Z,63.80
2017-10-30T13:47:20.575Z,63.50
2017-10-30T13:49:51.957Z,63.60
2017-10-30T13:52:22.278Z,63.20
2017-10-30T13:54:52.390Z,63.80
2017-10-30T13:57:22.661Z,60.60
2017-10-30T13:59:52.822Z,59.10
2017-10-30T14:02:22.953Z,57.40
2017-10-30T14:04:56.676Z,58.60
2017-10-30T14:07:30.639Z,58.60
2017-10-30T14:10:01.757Z,59.10
2017-10-30T14:12:32.596Z,59.10
2017-10-30T14:15:02.938Z,59.20
2017-10-30T14:17:33.503Z,59.30
2017-10-30T14:20:03.771Z,59.40
2017-10-30T14:22:34.221Z,59.50
2017-10-30T14:25:04.996Z,59.70
2017-10-30T14:27:35.603Z,60.10
2017-10-30T14:30:05.715Z,60.10
2017-10-30T14:32:35.824Z,60.20
2017-10-30T14:35:06.147Z,60.00
2017-10-30T14:37:36.089Z,60.20
2017-10-30T14:40:06.980Z,60.20
2017-10-30T14:42:37.152Z,60.20
2017-10-30T14:45:07.338Z,60.20
2017-10-30T14:47:37.408Z,60.30
2017-10-30T14:50:10.288Z,60.70
2017-10-30T14:52:40.664Z,60.80
2017-10-30T14:55:11.074Z,60.70
2017-10-30T14:57:41.301Z,60.90
2017-10-30T15:00:11.605Z,60.70
2017-10-30T15:02:41.729Z,60.90
2017-10-30T15:05:12.727Z,60.90
2017-10-30T15:07:42.855Z,61.00
2017-10-30T15:10:13.723Z,60.90
2017-10-30T15:12:43.702Z,61.10
2017-10-30T15:15:14.814Z,61.50
2017-10-30T15:17:44.960Z,61.30
2017-10-30T15:20:15.492Z,61.70
2017-10-30T15:22:46.998Z,61.50
2017-10-30T15:25:16.955Z,62.20
2017-10-30T15:27:46.973Z,61.60
2017-10-30T15:30:17.503Z,62.40
2017-10-30T15:32:47.689Z,61.40
2017-10-30T15:35:18.148Z,61.50
2017-10-30T15:37:48.268Z,61.50
2017-10-30T15:40:19.144Z,61.60
2017-10-30T15:42:49.333Z,61.60
2017-10-30T15:45:19.650Z,61.70
2017-10-30T15:47:49.725Z,62.10
2017-10-30T15:50:19.832Z,61.70
2017-10-30T15:52:49.960Z,62.80
2017-10-30T15:55:20.050Z,63.10
2017-10-30T15:57:50.042Z,63.40
2017-10-30T16:00:20.326Z,63.40
2017-10-30T16:02:50.283Z,63.10
2017-10-30T16:05:20.298Z,62.80
2017-10-30T16:07:50.940Z,63.60
2017-10-30T16:10:21.257Z,64.10
2017-10-30T16:12:51.379Z,63.40
2017-10-30T16:15:21.893Z,63.50
2017-10-30T16:17:52.019Z,63.20
2017-10-30T16:20:23.156Z,63.20
2017-10-30T16:22:53.313Z,63.40
2017-10-30T16:25:23.309Z,63.30
2017-10-30T16:27:54.258Z,63.80
2017-10-30T16:30:24.458Z,63.70
2017-10-30T16:33:02.787Z,63.40
2017-10-30T16:35:33.097Z,63.60
2017-10-30T16:38:12.694Z,63.30
2017-10-30T16:40:43.984Z,63.10
2017-10-30T16:43:14.622Z,63.00
2017-10-30T16:45:47.996Z,63.70
2017-10-30T16:48:19.626Z,63.70
2017-10-30T16:50:50.296Z,64.10
2017-10-30T16:53:20.705Z,63.60
2017-10-30T16:55:50.641Z,64.10
2017-10-30T16:58:20.673Z,64.40
2017-10-30T17:00:50.767Z,64.40
2017-10-30T17:03:21.811Z,63.50
2017-10-30T17:05:52.132Z,63.50
2017-10-30T17:08:22.589Z,63.80
2017-10-30T17:10:52.936Z,64.20
2017-10-30T17:13:23.031Z,64.60
2017-10-30T17:15:53.595Z,64.40
2017-10-30T17:18:24.669Z,64.00
2017-10-30T17:20:56.340Z,64.10
2017-10-30T17:23:26.680Z,64.40
2017-10-30T17:25:57.012Z,64.40
2017-10-30T17:28:26.893Z,64.60
2017-10-30T17:30:57.079Z,64.20
2017-10-30T17:33:27.950Z,63.90
2017-10-30T17:35:57.872Z,64.20
2017-10-30T17:38:28.133Z,63.90
2017-10-30T17:40:58.314Z,64.60
2017-10-30T17:43:28.632Z,64.40
2017-10-30T17:45:58.791Z,64.20
2017-10-30T17:48:29.070Z,64.20
2017-10-30T17:50:59.405Z,64.60
2017-10-30T17:53:30.131Z,64.60
2017-10-30T17:56:01.515Z,64.40
2017-10-30T17:58:32.579Z,64.70
2017-10-30T18:01:03.155Z,64.40
2017-10-30T18:03:33.279Z,64.50
2017-10-30T18:06:03.880Z,64.80
2017-10-30T18:08:34.129Z,64.50
2017-10-30T18:11:05.376Z,64.10
2017-10-30T18:13:40.915Z,64.60
2017-10-30T18:16:11.551Z,64.60
2017-10-30T18:18:41.750Z,64.70
2017-10-30T18:21:15.780Z,64.40
2017-10-30T18:23:46.813Z,63.90
2017-10-30T18:26:17.610Z,63.90
2017-10-30T18:28:48.596Z,64.00
2017-10-30T18:31:20.088Z,64.40
2017-10-30T18:33:50.673Z,64.20
2017-10-30T18:36:20.585Z,63.60
2017-10-30T18:38:52.310Z,63.40
2017-10-30T18:41:23.432Z,63.60
2017-10-30T18:43:54.370Z,63.60
2017-10-30T18:46:24.758Z,64.10
2017-10-30T18:48:54.719Z,63.80
2017-10-30T18:51:25.409Z,64.00
2017-10-30T18:53:56.639Z,63.70
2017-10-30T18:56:27.061Z,63.80
2017-10-30T18:58:57.280Z,63.80
2017-10-30T19:01:28.268Z,63.60
2017-10-30T19:03:58.129Z,64.40
2017-10-30T19:06:28.170Z,64.00
2017-10-30T19:08:58.498Z,64.10
2017-10-30T19:11:28.609Z,63.90
2017-10-30T19:13:58.934Z,63.80
2017-10-30T19:16:29.515Z,64.10
2017-10-30T19:19:01.779Z,64.60
2017-10-30T19:21:32.813Z,63.90
2017-10-30T19:24:04.926Z,65.20
2017-10-30T19:26:35.682Z,65.20
2017-10-30T19:29:08.254Z,65.50
2017-10-30T19:31:38.996Z,65.40
2017-10-30T19:34:09.512Z,65.30
2017-10-30T19:36:39.571Z,65.00
2017-10-30T19:39:10.263Z,65.50
2017-10-30T19:41:42.279Z,65.30
2017-10-30T19:44:15.261Z,64.90
2017-10-30T19:46:52.594Z,65.60
2017-10-30T19:49:32.382Z,65.50
2017-10-30T19:52:12.060Z,65.40
2017-10-30T19:54:42.418Z,65.60
2017-10-30T19:57:12.731Z,65.40
2017-10-30T19:59:43.644Z,65.90
2017-10-30T20:02:15.093Z,65.90
2017-10-30T20:04:46.686Z,66.20
2017-10-30T20:08:20.532Z,66.00
2017-10-30T20:12:57.684Z,65.90
2017-10-30T20:15:28.893Z,65.90
2017-10-30T20:17:59.765Z,66.40
2017-10-30T20:20:29.888Z,66.00
2017-10-30T20:23:01.775Z,66.40
2017-10-30T20:25:32.996Z,66.40
2017-10-30T20:28:03.133Z,66.40
2017-10-30T20:30:33.434Z,66.50
2017-10-30T20:33:04.166Z,66.40
2017-10-30T20:35:38.384Z,66.50
2017-10-30T20:38:08.106Z,66.80
2017-10-30T20:40:38.625Z,66.50
2017-10-30T20:43:09.344Z,66.40
2017-10-30T20:45:40.050Z,66.90
2017-10-30T20:48:10.598Z,66.90
2017-10-30T20:50:40.826Z,66.90
2017-10-30T20:53:10.855Z,66.90
2017-10-30T20:55:41.280Z,67.00
2017-10-30T20:58:11.778Z,66.90
2017-10-30T21:00:44.055Z,67.20
2017-10-30T21:03:15.185Z,67.10
2017-10-30T21:05:45.545Z,67.10
2017-10-30T21:08:18.123Z,67.20
2017-10-30T21:10:48.855Z,67.20
2017-10-30T21:13:19.393Z,67.40
2017-10-30T21:15:49.709Z,66.90
2017-10-30T21:18:20.866Z,67.60
2017-10-30T21:20:51.793Z,67.70
2017-10-30T21:23:23.590Z,67.50
2017-10-30T21:25:53.669Z,67.50
2017-10-30T21:28:24.666Z,67.50
2017-10-30T21:30:54.642Z,67.70
2017-10-30T21:33:25.050Z,67.70
2017-10-30T21:35:57.218Z,67.90
2017-10-30T21:38:28.156Z,67.70
2017-10-30T21:40:58.848Z,67.70
2017-10-30T21:43:30.428Z,67.50
2017-10-30T21:46:06.478Z,67.90
2017-10-30T21:48:36.594Z,67.90
2017-10-30T21:51:08.583Z,67.70
2017-10-30T21:53:40.071Z,67.50
2017-10-30T21:56:10.834Z,67.80
2017-10-30T21:58:42.536Z,67.80
2017-10-30T22:01:12.945Z,67.90
2017-10-30T22:03:43.377Z,67.70
2017-10-30T22:06:15.643Z,67.80
2017-10-30T22:08:46.379Z,67.70
2017-10-30T22:11:18.163Z,68.20
2017-10-30T22:13:48.842Z,67.90
2017-10-30T22:16:18.990Z,68.10
2017-10-30T22:18:49.527Z,67.90
2017-10-30T22:21:19.989Z,68.00
2017-10-30T22:23:49.959Z,68.30
2017-10-30T22:26:21.118Z,68.20
2017-10-30T22:28:51.422Z,68.40
2017-10-30T22:31:21.546Z,68.20
2017-10-30T22:33:52.073Z,68.40
2017-10-30T22:36:22.024Z,68.40
2017-10-30T22:38:52.090Z,68.40
2017-10-30T22:41:22.840Z,68.60
2017-10-30T22:43:52.840Z,68.50
2017-10-30T22:46:23.056Z,68.50
2017-10-30T22:48:53.070Z,68.60
2017-10-30T22:51:23.304Z,68.60
2017-10-30T22:53:55.006Z,68.80
2017-10-30T22:56:25.096Z,68.80
2017-10-30T22:58:56.558Z,69.10
2017-10-30T23:01:27.485Z,68.60
2017-10-30T23:03:58.016Z,68.60
2017-10-30T23:06:29.301Z,68.60
2017-10-30T23:09:00.806Z,68.60
2017-10-30T23:11:31.337Z,68.70
2017-10-30T23:14:01.760Z,68.70
2017-10-30T23:16:33.603Z,68.60
2017-10-30T23:19:03.646Z,68.60
2017-10-30T23:21:33.712Z,68.90
2017-10-30T23:24:03.845Z,68.80
2017-10-30T23:26:33.741Z,69.10
2017-10-30T23:29:03.713Z,68.80
2017-10-30T23:31:34.233Z,68.90
2017-10-30T23:34:04.353Z,68.50
2017-10-30T23:36:34.474Z,68.80
2017-10-30T23:39:04.600Z,68.60
2017-10-30T23:41:35.667Z,68.80
2017-10-30T23:44:09.540Z,68.80
2017-10-30T23:46:40.068Z,69.10
2017-10-30T23:49:10.794Z,68.80
2017-10-30T23:51:41.272Z,68.90
2017-10-30T23:54:18.605Z,68.80
2017-10-30T23:56:51.338Z,68.90
